createdAt,value
2023-03-23T16:00:51.122Z,13.92
2023-03-23T16:06:03.510Z,13.77
2023-03-23T16:11:13.689Z,13.65
2023-03-23T16:16:26.590Z,13.57
2023-03-23T16:21:33.687Z,13.46
2023-03-23T16:26:42.590Z,13.39
2023-03-23T16:31:49.660Z,13.33
2023-03-23T16:36:56.598Z,13.25
2023-03-23T16:42:04.713Z,13.15
2023-03-23T16:47:11.247Z,13.07
2023-03-23T16:52:18.050Z,12.99
2023-03-23T16:57:26.680Z,12.87
2023-03-23T17:02:33.527Z,12.60
2023-03-23T17:07:41.267Z,12.50
2023-03-23T17:12:49.407Z,12.51
2023-03-23T17:17:56.746Z,12.46
2023-03-23T17:23:04.885Z,12.44
2023-03-23T17:28:14.001Z,12.39
2023-03-23T17:33:21.040Z,12.33
2023-03-23T17:38:28.139Z,12.22
2023-03-23T17:43:38.176Z,12.17
2023-03-23T17:48:46.515Z,12.10
2023-03-23T17:53:58.036Z,12.04
2023-03-23T17:59:08.804Z,11.93
2023-03-23T18:04:18.601Z,11.86
2023-03-23T18:09:30.829Z,11.79
2023-03-23T18:14:42.075Z,11.76
2023-03-23T18:19:50.307Z,11.73
2023-03-23T18:24:59.676Z,11.71
2023-03-23T18:30:13.143Z,11.66
2023-03-23T18:35:28.082Z,11.65
2023-03-23T18:40:38.754Z,11.65
2023-03-23T18:45:54.270Z,11.63
2023-03-23T18:51:10.095Z,11.62
2023-03-23T18:56:20.587Z,11.60
2023-03-23T19:01:32.190Z,11.59
2023-03-23T19:06:43.040Z,11.56
2023-03-23T19:11:53.555Z,11.56
2023-03-23T19:17:07.832Z,11.49
2023-03-23T19:22:17.752Z,11.46
2023-03-23T19:27:28.640Z,11.43
2023-03-23T19:32:40.880Z,11.38
2023-03-23T19:37:51.897Z,11.34
2023-03-23T19:43:05.463Z,11.27
2023-03-23T19:48:18.169Z,11.23
2023-03-23T19:53:39.289Z,11.22
2023-03-23T19:58:51.925Z,11.23
2023-03-23T20:04:07.701Z,11.29
2023-03-23T20:09:21.748Z,11.39
2023-03-23T20:14:32.243Z,11.47
2023-03-23T20:19:45.190Z,11.51
2023-03-23T20:24:54.861Z,11.51
2023-03-23T20:30:06.236Z,11.54
2023-03-23T20:35:23.357Z,11.52
2023-03-23T20:40:32.482Z,11.54
2023-03-23T20:45:44.924Z,11.56
2023-03-23T20:50:55.379Z,11.57
2023-03-23T20:56:07.628Z,11.61
2023-03-23T21:01:22.440Z,11.62
2023-03-23T21:06:34.388Z,11.63
2023-03-23T21:11:43.076Z,11.64
2023-03-23T21:16:52.494Z,11.64
2023-03-23T21:22:02.894Z,11.68
2023-03-23T21:27:09.523Z,11.68
2023-03-23T21:32:16.958Z,11.67
2023-03-23T21:37:25.005Z,11.64
2023-03-23T21:42:31.836Z,11.60
2023-03-23T21:47:39.665Z,11.56
2023-03-23T21:52:51.248Z,11.51
2023-03-23T21:57:58.412Z,11.47
2023-03-23T22:03:05.448Z,11.43
2023-03-23T22:08:14.944Z,11.38
2023-03-23T22:13:21.560Z,11.33
2023-03-23T22:18:28.624Z,11.24
2023-03-23T22:23:37.121Z,11.18
2023-03-23T22:28:43.870Z,11.14
2023-03-23T22:33:54.446Z,11.12
2023-03-23T22:39:04.011Z,11.09
2023-03-23T22:44:15.614Z,11.14
2023-03-23T22:49:22.261Z,11.12
2023-03-23T22:54:31.076Z,11.09
2023-03-23T22:59:37.644Z,11.06
2023-03-23T23:04:44.384Z,11.03
2023-03-23T23:09:52.455Z,10.98
2023-03-23T23:14:59.460Z,10.93
2023-03-23T23:20:07.199Z,10.90
2023-03-23T23:25:15.014Z,10.88
2023-03-23T23:30:21.586Z,10.88
2023-03-23T23:35:28.784Z,10.89
2023-03-23T23:40:36.769Z,10.85
2023-03-23T23:45:43.594Z,10.78
2023-03-23T23:50:52.535Z,10.73
2023-03-23T23:56:03.955Z,10.64
